createdAt,value
2023-02-24T00:02:30.050Z,69.78
2023-02-24T00:05:08.765Z,69.58
2023-02-24T00:07:46.443Z,69.54
2023-02-24T00:10:26.231Z,69.47
2023-02-24T00:13:04.107Z,69.34
2023-02-24T00:15:41.410Z,69.31
2023-02-24T00:18:11.533Z,69.37
2023-02-24T00:20:45.290Z,69.42
2023-02-24T00:23:24.269Z,69.53
2023-02-24T00:26:07.566Z,69.62
2023-02-24T00:28:45.009Z,69.29
2023-02-24T00:31:24.806Z,69.42
2023-02-24T00:34:05.568Z,69.47
2023-02-24T00:36:43.493Z,69.60
2023-02-24T00:39:30.310Z,69.47
2023-02-24T00:42:09.765Z,69.62
2023-02-24T00:44:47.246Z,69.60
2023-02-24T00:47:24.938Z,69.42
2023-02-24T00:49:55.303Z,69.98
2023-02-24T00:52:33.539Z,69.77
2023-02-24T00:55:15.494Z,69.79
2023-02-24T00:57:46.044Z,69.71
2023-02-24T01:00:18.963Z,69.67
2023-02-24T01:02:49.830Z,69.60
2023-02-24T01:05:29.946Z,69.57
2023-02-24T01:08:08.852Z,69.61
2023-02-24T01:11:09.512Z,69.63
2023-02-24T01:13:49.038Z,69.67
2023-02-24T01:16:25.820Z,70.02
2023-02-24T01:18:55.974Z,70.18
2023-02-24T01:21:31.829Z,69.79
2023-02-24T01:24:10.932Z,69.61
2023-02-24T01:26:46.784Z,69.97
2023-02-24T01:29:26.194Z,70.19
2023-02-24T01:32:03.755Z,70.27
2023-02-24T01:34:42.718Z,70.50
2023-02-24T01:37:20.359Z,70.78
2023-02-24T01:39:57.338Z,70.82
2023-02-24T01:42:34.756Z,70.97
2023-02-24T01:45:19.306Z,71.15
2023-02-24T01:47:51.229Z,71.25
2023-02-24T01:50:29.901Z,71.58
2023-02-24T01:53:10.250Z,71.51
2023-02-24T01:55:50.539Z,71.76
2023-02-24T01:58:33.239Z,71.88
2023-02-24T02:01:14.913Z,72.22
2023-02-24T02:03:49.385Z,71.98
2023-02-24T02:06:26.873Z,71.67
2023-02-24T02:08:58.640Z,71.80
2023-02-24T02:11:33.508Z,71.57
2023-02-24T02:14:12.002Z,72.04
2023-02-24T02:17:06.352Z,72.17
2023-02-24T02:20:08.220Z,72.37
2023-02-24T02:23:29.093Z,71.94
2023-02-24T02:26:41.722Z,72.13
2023-02-24T02:30:04.269Z,72.43
2023-02-24T02:33:27.805Z,72.58
2023-02-24T02:36:13.236Z,72.50
2023-02-24T02:39:04.186Z,72.87
2023-02-24T02:41:45.005Z,72.33
2023-02-24T02:44:56.306Z,71.98
2023-02-24T02:47:54.220Z,71.71
2023-02-24T02:50:55.276Z,71.54
2023-02-24T02:53:41.560Z,71.35
2023-02-24T02:56:23.365Z,71.49
2023-02-24T02:58:57.202Z,71.46
2023-02-24T03:01:37.262Z,71.65
2023-02-24T03:04:18.115Z,71.86
2023-02-24T03:07:11.869Z,72.02
2023-02-24T03:09:52.882Z,72.02
2023-02-24T03:12:33.178Z,72.24
2023-02-24T03:15:14.338Z,72.57
2023-02-24T03:17:56.823Z,72.81
2023-02-24T03:20:48.129Z,73.12
2023-02-24T03:23:32.549Z,73.41
2023-02-24T03:26:23.711Z,74.04
2023-02-24T03:29:11.459Z,74.10
2023-02-24T03:32:15.068Z,74.96
2023-02-24T03:35:01.258Z,74.77
2023-02-24T03:37:37.308Z,74.66
2023-02-24T03:40:16.069Z,74.55
2023-02-24T03:43:00.104Z,75.29
2023-02-24T03:45:38.766Z,74.65
2023-02-24T03:48:15.929Z,75.23
2023-02-24T03:50:53.578Z,76.21
2023-02-24T03:54:03.231Z,77.29
2023-02-24T03:57:02.179Z,77.50
2023-02-24T04:00:23.800Z,77.76
2023-02-24T04:03:19.508Z,78.22
2023-02-24T04:06:16.270Z,78.54
2023-02-24T04:09:12.189Z,79.14
2023-02-24T04:12:04.004Z,78.34
2023-02-24T04:15:09.623Z,78.58
2023-02-24T04:17:59.608Z,79.05
2023-02-24T04:20:40.595Z,79.41
2023-02-24T04:23:23.955Z,79.79
2023-02-24T04:26:02.745Z,80.00
2023-02-24T04:28:41.237Z,80.04
2023-02-24T04:31:21.419Z,80.32
2023-02-24T04:34:00.493Z,80.05
2023-02-24T04:36:38.748Z,80.66
2023-02-24T04:39:19.044Z,80.86
2023-02-24T04:41:58.266Z,81.09
2023-02-24T04:44:35.244Z,80.80
2023-02-24T04:47:05.428Z,80.51
2023-02-24T04:49:43.927Z,81.29
2023-02-24T04:52:16.541Z,80.95
2023-02-24T04:54:54.315Z,81.50
2023-02-24T04:57:31.476Z,81.13
2023-02-24T05:00:27.918Z,80.57
2023-02-24T05:02:58.861Z,80.46
2023-02-24T05:05:38.201Z,80.52
2023-02-24T05:08:16.196Z,80.53
2023-02-24T05:10:47.999Z,80.82
2023-02-24T05:13:28.322Z,80.61
2023-02-24T05:16:09.314Z,80.43
2023-02-24T05:18:46.453Z,80.40
2023-02-24T05:21:38.428Z,80.84
2023-02-24T05:24:17.516Z,80.76
2023-02-24T05:27:15.872Z,80.71
2023-02-24T05:29:54.729Z,80.90
2023-02-24T05:32:34.963Z,80.61
2023-02-24T05:35:06.549Z,80.48
2023-02-24T05:37:42.627Z,80.78
2023-02-24T05:40:29.822Z,80.77
2023-02-24T05:43:04.663Z,80.94
2023-02-24T05:45:40.608Z,80.97
2023-02-24T05:48:19.213Z,80.67
2023-02-24T05:51:00.000Z,80.73
2023-02-24T05:53:30.622Z,80.44
2023-02-24T05:56:08.521Z,80.38
2023-02-24T05:58:45.644Z,80.25
2023-02-24T06:01:20.764Z,80.40
2023-02-24T06:03:51.787Z,80.74
2023-02-24T06:06:24.027Z,80.89
2023-02-24T06:08:55.738Z,80.62
2023-02-24T06:11:26.384Z,80.61
2023-02-24T06:14:07.557Z,80.73
2023-02-24T06:16:45.466Z,80.86
2023-02-24T06:19:25.875Z,80.74
2023-02-24T06:22:04.377Z,80.77
2023-02-24T06:24:45.586Z,80.83
2023-02-24T06:27:25.486Z,80.64
2023-02-24T06:30:03.984Z,80.73
2023-02-24T06:32:41.159Z,80.72
2023-02-24T06:35:17.793Z,80.67
2023-02-24T06:37:57.975Z,80.71
2023-02-24T06:40:35.077Z,80.71
2023-02-24T06:43:05.454Z,80.64
2023-02-24T06:45:41.557Z,80.74
2023-02-24T06:48:18.882Z,80.64
2023-02-24T06:50:57.237Z,80.38
2023-02-24T06:53:36.436Z,80.51
2023-02-24T06:56:20.419Z,80.41
2023-02-24T06:58:59.529Z,80.48
2023-02-24T07:01:45.926Z,80.29
2023-02-24T07:04:27.880Z,80.32
2023-02-24T07:07:03.809Z,80.56
2023-02-24T07:09:37.285Z,80.60
2023-02-24T07:12:17.577Z,80.83
2023-02-24T07:14:54.359Z,80.37
2023-02-24T07:17:31.063Z,80.49
2023-02-24T07:20:12.710Z,80.58
2023-02-24T07:22:44.387Z,80.49
2023-02-24T07:25:33.817Z,80.09
2023-02-24T07:28:12.435Z,80.34
2023-02-24T07:30:43.793Z,80.38
2023-02-24T07:33:23.673Z,80.03
2023-02-24T07:35:54.299Z,79.76
2023-02-24T07:38:24.385Z,79.83
2023-02-24T07:41:03.127Z,79.51
2023-02-24T07:43:38.897Z,79.90
2023-02-24T07:46:24.977Z,79.72
2023-02-24T07:49:03.993Z,80.00
2023-02-24T07:51:37.636Z,79.75
2023-02-24T07:54:16.099Z,79.78
2023-02-24T07:56:59.965Z,79.87
2023-02-24T07:59:38.756Z,79.75
2023-02-24T08:02:16.579Z,79.90
2023-02-24T08:04:55.955Z,79.78
2023-02-24T08:07:34.104Z,79.51
2023-02-24T08:10:24.610Z,79.30
2023-02-24T08:13:03.531Z,79.32
2023-02-24T08:15:39.206Z,79.24
2023-02-24T08:18:20.684Z,79.28
2023-02-24T08:21:05.222Z,79.38
2023-02-24T08:23:45.151Z,79.28
2023-02-24T08:26:30.733Z,79.31
2023-02-24T08:29:12.956Z,79.37
2023-02-24T08:31:45.374Z,79.42
2023-02-24T08:34:28.007Z,79.21
2023-02-24T08:37:05.156Z,79.18
2023-02-24T08:39:40.339Z,79.14
2023-02-24T08:42:14.613Z,78.91
2023-02-24T08:44:54.378Z,79.01
2023-02-24T08:47:36.514Z,78.85
2023-02-24T08:50:15.944Z,78.86
2023-02-24T08:52:54.195Z,78.84
2023-02-24T08:55:33.628Z,78.80
2023-02-24T08:58:19.990Z,78.50
2023-02-24T09:00:59.682Z,78.81
2023-02-24T09:03:46.392Z,78.63
2023-02-24T09:06:27.607Z,78.51
2023-02-24T09:09:19.890Z,78.36
2023-02-24T09:12:00.727Z,78.57
2023-02-24T09:14:39.619Z,78.43
2023-02-24T09:17:20.968Z,78.53
2023-02-24T09:20:15.119Z,78.78
2023-02-24T09:23:01.290Z,78.91
2023-02-24T09:25:50.258Z,79.07
2023-02-24T09:28:29.579Z,78.97
2023-02-24T09:31:07.406Z,79.09
2023-02-24T09:33:43.095Z,79.12
2023-02-24T09:36:40.686Z,78.98
2023-02-24T09:39:23.815Z,79.07
2023-02-24T09:42:12.155Z,79.23
2023-02-24T09:45:03.278Z,79.00
2023-02-24T09:47:56.196Z,79.26
2023-02-24T09:51:30.551Z,79.26
2023-02-24T09:54:14.575Z,79.24
2023-02-24T09:57:17.620Z,79.43
2023-02-24T10:00:36.592Z,79.21
2023-02-24T10:03:43.105Z,79.20
2023-02-24T10:06:38.717Z,79.20
2023-02-24T10:09:35.928Z,79.29
2023-02-24T10:12:29.568Z,79.15
2023-02-24T10:15:19.991Z,78.97
2023-02-24T10:18:00.286Z,79.34
2023-02-24T10:20:49.599Z,79.33
2023-02-24T10:24:02.846Z,79.31
2023-02-24T10:26:59.688Z,79.22
2023-02-24T10:30:21.810Z,78.98
2023-02-24T10:33:06.027Z,79.17
2023-02-24T10:35:42.236Z,78.92
2023-02-24T10:38:20.468Z,78.97
2023-02-24T10:41:07.544Z,78.96
2023-02-24T10:43:57.512Z,78.59
2023-02-24T10:46:42.110Z,78.57
2023-02-24T10:49:28.214Z,78.40
2023-02-24T10:52:11.827Z,78.55
2023-02-24T10:55:29.170Z,78.58
2023-02-24T10:58:40.665Z,78.31
2023-02-24T11:01:50.018Z,78.01
2023-02-24T11:04:59.664Z,78.24
2023-02-24T11:07:55.525Z,77.97
2023-02-24T11:10:44.111Z,78.18
2023-02-24T11:13:44.052Z,78.05
2023-02-24T11:16:42.854Z,77.30
2023-02-24T11:19:19.795Z,77.35
2023-02-24T11:21:57.564Z,76.90
2023-02-24T11:24:33.292Z,76.88
2023-02-24T11:27:13.015Z,76.89
2023-02-24T11:30:17.742Z,76.80
2023-02-24T11:33:12.315Z,76.48
2023-02-24T11:36:04.362Z,76.04
2023-02-24T11:39:42.551Z,75.69
2023-02-24T11:42:29.697Z,75.80
2023-02-24T11:45:25.266Z,75.65
2023-02-24T11:48:26.216Z,75.73
2023-02-24T11:51:24.563Z,75.91
2023-02-24T11:54:19.932Z,75.99
2023-02-24T11:57:02.944Z,75.81
2023-02-24T11:59:53.161Z,75.35
2023-02-24T12:03:15.640Z,74.46
2023-02-24T12:05:57.267Z,74.70
2023-02-24T12:08:40.347Z,74.68
2023-02-24T12:11:40.815Z,73.68
2023-02-24T12:14:42.435Z,73.59
2023-02-24T12:17:45.224Z,73.35
2023-02-24T12:21:01.165Z,73.03
2023-02-24T12:23:45.147Z,73.10
2023-02-24T12:26:29.441Z,73.28
2023-02-24T12:29:51.752Z,73.10
2023-02-24T12:33:21.355Z,72.36
2023-02-24T12:36:46.522Z,72.28
2023-02-24T12:39:59.286Z,71.69
2023-02-24T12:43:04.292Z,72.21
2023-02-24T12:46:31.181Z,71.93
2023-02-24T12:49:40.373Z,71.89
2023-02-24T12:52:45.620Z,71.89
2023-02-24T12:55:42.618Z,71.31
2023-02-24T12:58:29.043Z,71.33
2023-02-24T13:01:27.680Z,70.68
2023-02-24T13:04:26.630Z,70.97
2023-02-24T13:07:43.402Z,70.35
2023-02-24T13:10:33.278Z,70.34
2023-02-24T13:13:33.951Z,69.81
2023-02-24T13:16:15.753Z,69.91
2023-02-24T13:18:49.876Z,69.79
2023-02-24T13:21:30.866Z,69.90
2023-02-24T13:24:22.680Z,69.99
2023-02-24T13:27:15.789Z,69.69
2023-02-24T13:30:04.527Z,69.43
2023-02-24T13:32:47.758Z,68.91
2023-02-24T13:35:28.896Z,69.25
2023-02-24T13:38:24.471Z,69.25
2023-02-24T13:41:31.348Z,69.28
2023-02-24T13:44:30.451Z,69.23
2023-02-24T13:48:01.340Z,69.93
2023-02-24T13:51:09.175Z,70.06
2023-02-24T13:54:22.164Z,69.66
2023-02-24T13:57:34.433Z,69.69
2023-02-24T14:00:56.938Z,69.55
2023-02-24T14:03:46.316Z,69.30
2023-02-24T14:06:38.820Z,69.44
2023-02-24T14:09:19.397Z,69.47
2023-02-24T14:12:04.833Z,69.53
2023-02-24T14:14:39.930Z,69.40
2023-02-24T14:17:40.803Z,69.59
2023-02-24T14:20:26.460Z,69.09
2023-02-24T14:23:24.006Z,68.59
2023-02-24T14:26:05.724Z,69.18
2023-02-24T14:28:42.093Z,69.14
2023-02-24T14:31:22.984Z,69.18
2023-02-24T14:34:04.530Z,68.29
2023-02-24T14:36:46.984Z,68.24
2023-02-24T14:39:30.115Z,68.13
2023-02-24T14:42:16.924Z,68.49
2023-02-24T14:45:02.849Z,68.53
2023-02-24T14:47:45.442Z,68.86
2023-02-24T14:50:29.833Z,68.58
2023-02-24T14:53:17.387Z,68.29
2023-02-24T14:56:03.432Z,68.60
2023-02-24T14:58:53.115Z,68.82
2023-02-24T15:01:48.879Z,68.69
2023-02-24T15:04:40.423Z,69.02
2023-02-24T15:07:31.535Z,69.07
2023-02-24T15:10:21.728Z,68.75
2023-02-24T15:13:18.306Z,69.01
2023-02-24T15:15:52.519Z,69.20
2023-02-24T15:18:33.748Z,69.13
2023-02-24T15:21:32.602Z,69.12
2023-02-24T15:24:35.566Z,69.16
2023-02-24T15:27:18.339Z,69.34
2023-02-24T15:30:33.514Z,69.31
2023-02-24T15:33:26.394Z,69.28
2023-02-24T15:36:00.806Z,69.70
2023-02-24T15:38:41.091Z,69.59
2023-02-24T15:41:18.091Z,69.76
2023-02-24T15:43:57.519Z,69.50
2023-02-24T15:46:39.168Z,69.49
2023-02-24T15:49:16.323Z,68.69
2023-02-24T15:51:55.227Z,68.59
2023-02-24T15:54:43.623Z,68.21
2023-02-24T15:57:20.320Z,67.53
2023-02-24T15:59:58.314Z,67.48
2023-02-24T16:02:35.902Z,67.64
2023-02-24T16:05:17.553Z,67.80
2023-02-24T16:07:49.766Z,67.88
2023-02-24T16:10:32.318Z,68.06
2023-02-24T16:13:10.781Z,68.26
2023-02-24T16:15:48.718Z,68.46
2023-02-24T16:18:26.980Z,68.79
2023-02-24T16:21:04.417Z,68.80
2023-02-24T16:23:41.550Z,68.95
2023-02-24T16:26:23.972Z,68.90
2023-02-24T16:29:02.530Z,69.28
2023-02-24T16:31:41.195Z,68.96
2023-02-24T16:34:19.637Z,68.86
2023-02-24T16:36:56.379Z,68.75
2023-02-24T16:39:27.496Z,68.76
2023-02-24T16:42:00.353Z,68.55
2023-02-24T16:44:38.494Z,68.32
2023-02-24T16:47:21.443Z,68.28
2023-02-24T16:50:00.852Z,68.40
2023-02-24T16:52:38.170Z,68.50
2023-02-24T16:55:17.480Z,67.78
2023-02-24T16:57:54.326Z,68.01
2023-02-24T17:00:32.735Z,68.02
2023-02-24T17:03:31.492Z,68.07
2023-02-24T17:06:02.115Z,67.56
2023-02-24T17:08:42.018Z,67.36
2023-02-24T17:11:22.508Z,66.74
2023-02-24T17:14:01.130Z,66.74
2023-02-24T17:16:40.678Z,67.04
2023-02-24T17:19:18.051Z,66.52
2023-02-24T17:21:54.870Z,66.93
2023-02-24T17:24:31.557Z,65.97
2023-02-24T17:27:08.917Z,66.11
2023-02-24T17:29:45.524Z,65.75
2023-02-24T17:32:15.843Z,66.13
2023-02-24T17:34:46.304Z,65.77
2023-02-24T17:37:22.513Z,65.58
2023-02-24T17:39:52.724Z,66.16
2023-02-24T17:42:29.364Z,66.11
2023-02-24T17:45:07.482Z,66.19
2023-02-24T17:47:45.083Z,66.19
2023-02-24T17:50:22.277Z,66.11
2023-02-24T17:52:59.344Z,65.94
2023-02-24T17:55:36.335Z,66.05
2023-02-24T17:58:07.041Z,66.31
2023-02-24T18:00:43.007Z,66.01
2023-02-24T18:03:20.810Z,66.20
2023-02-24T18:06:06.289Z,66.09
2023-02-24T18:08:43.126Z,66.44
2023-02-24T18:11:21.238Z,66.28
2023-02-24T18:14:00.512Z,65.88
2023-02-24T18:16:37.842Z,66.35
2023-02-24T18:19:15.285Z,66.35
2023-02-24T18:21:52.267Z,66.03
2023-02-24T18:24:29.703Z,65.89
2023-02-24T18:26:59.765Z,66.18
2023-02-24T18:29:37.997Z,66.10
2023-02-24T18:32:08.194Z,65.71
2023-02-24T18:34:44.379Z,65.80
2023-02-24T18:37:22.457Z,66.04
2023-02-24T18:39:59.182Z,65.90
2023-02-24T18:42:36.268Z,65.70
2023-02-24T18:45:13.784Z,65.60
2023-02-24T18:47:52.515Z,65.58
2023-02-24T18:50:29.224Z,65.80
2023-02-24T18:53:06.883Z,66.02
2023-02-24T18:55:44.578Z,66.09
2023-02-24T18:58:20.779Z,65.89
2023-02-24T19:00:57.666Z,66.19
2023-02-24T19:03:27.791Z,66.37
2023-02-24T19:06:04.797Z,66.24
2023-02-24T19:08:41.893Z,66.23
2023-02-24T19:11:22.661Z,66.42
2023-02-24T19:14:01.030Z,66.60
2023-02-24T19:16:38.657Z,66.87
2023-02-24T19:19:17.969Z,66.77
2023-02-24T19:21:54.662Z,66.89
2023-02-24T19:24:32.427Z,66.87
2023-02-24T19:27:11.528Z,67.03
2023-02-24T19:29:48.746Z,67.14
2023-02-24T19:32:25.993Z,67.24
2023-02-24T19:35:03.191Z,67.13
2023-02-24T19:37:40.331Z,67.06
2023-02-24T19:40:18.586Z,67.14
2023-02-24T19:42:53.756Z,67.05
2023-02-24T19:45:27.213Z,67.42
2023-02-24T19:48:05.122Z,67.52
2023-02-24T19:50:46.835Z,67.73
2023-02-24T19:53:23.848Z,67.92
2023-02-24T19:56:00.691Z,68.20
2023-02-24T19:58:39.083Z,68.45
2023-02-24T20:01:18.800Z,68.72
2023-02-24T20:03:58.961Z,68.45
2023-02-24T20:06:40.689Z,68.68
2023-02-24T20:09:22.370Z,68.82
2023-02-24T20:11:59.668Z,68.94
2023-02-24T20:14:37.274Z,69.12
2023-02-24T20:17:08.317Z,69.21
2023-02-24T20:19:39.883Z,69.34
2023-02-24T20:22:15.729Z,69.48
2023-02-24T20:24:48.161Z,69.68
2023-02-24T20:27:24.776Z,69.82
2023-02-24T20:30:05.150Z,69.61
2023-02-24T20:32:43.295Z,69.84
2023-02-24T20:35:21.809Z,69.92
2023-02-24T20:37:58.288Z,70.08
2023-02-24T20:40:37.150Z,70.02
2023-02-24T20:43:10.601Z,70.30
2023-02-24T20:45:41.310Z,70.55
2023-02-24T20:48:12.182Z,70.64
2023-02-24T20:50:48.684Z,70.70
2023-02-24T20:53:25.671Z,70.85
2023-02-24T20:56:07.733Z,71.18
2023-02-24T20:58:44.553Z,71.45
2023-02-24T21:01:22.694Z,71.20
2023-02-24T21:03:59.501Z,71.28
2023-02-24T21:06:36.788Z,71.72
2023-02-24T21:09:08.059Z,71.76
2023-02-24T21:11:39.365Z,71.53
2023-02-24T21:14:19.478Z,71.69
2023-02-24T21:16:50.612Z,71.62
2023-02-24T21:19:28.630Z,71.60
2023-02-24T21:22:05.743Z,71.48
2023-02-24T21:24:42.334Z,71.24
2023-02-24T21:27:13.083Z,70.99
2023-02-24T21:29:46.667Z,71.05
2023-02-24T21:32:18.160Z,70.85
2023-02-24T21:34:50.437Z,70.85
2023-02-24T21:37:21.233Z,70.89
2023-02-24T21:39:52.109Z,70.84
2023-02-24T21:42:23.317Z,70.83
2023-02-24T21:45:02.747Z,70.30
2023-02-24T21:47:33.539Z,69.88
2023-02-24T21:50:12.223Z,69.83
2023-02-24T21:52:49.429Z,69.54
2023-02-24T21:55:26.753Z,69.49
2023-02-24T21:58:03.912Z,69.49
2023-02-24T22:00:41.396Z,69.13
2023-02-24T22:03:11.609Z,69.26
2023-02-24T22:05:54.072Z,69.29
2023-02-24T22:08:31.112Z,69.60
2023-02-24T22:11:02.592Z,69.42
2023-02-24T22:13:33.399Z,69.49
2023-02-24T22:16:12.918Z,69.48
2023-02-24T22:18:47.216Z,69.53
2023-02-24T22:21:26.498Z,69.74
2023-02-24T22:24:06.018Z,69.72
2023-02-24T22:26:42.885Z,69.68
2023-02-24T22:29:20.484Z,69.96
2023-02-24T22:31:56.985Z,70.18
2023-02-24T22:34:34.204Z,71.11
2023-02-24T22:37:04.486Z,71.75
2023-02-24T22:39:35.653Z,72.12
2023-02-24T22:42:09.605Z,72.13
2023-02-24T22:44:47.451Z,72.20
2023-02-24T22:47:24.538Z,72.32
2023-02-24T22:49:55.180Z,72.40
2023-02-24T22:52:32.824Z,72.79
2023-02-24T22:55:10.374Z,74.05
2023-02-24T22:57:47.476Z,74.26
2023-02-24T23:00:23.399Z,73.81
2023-02-24T23:02:53.449Z,73.94
2023-02-24T23:05:31.638Z,74.08
2023-02-24T23:08:08.760Z,74.53
2023-02-24T23:10:45.517Z,74.24
2023-02-24T23:13:17.057Z,73.77
2023-02-24T23:15:51.492Z,73.59
2023-02-24T23:18:28.070Z,73.40
2023-02-24T23:21:05.795Z,73.25
2023-02-24T23:23:38.087Z,73.16
2023-02-24T23:26:11.817Z,73.06
2023-02-24T23:28:50.370Z,72.96
2023-02-24T23:31:26.665Z,72.89
2023-02-24T23:34:07.565Z,73.06
2023-02-24T23:36:46.681Z,72.74
2023-02-24T23:39:24.325Z,72.82
2023-02-24T23:42:01.427Z,73.08
2023-02-24T23:44:40.348Z,73.09
2023-02-24T23:47:10.487Z,72.99
2023-02-24T23:49:48.839Z,73.18
2023-02-24T23:52:26.185Z,73.07
2023-02-24T23:55:03.864Z,72.83
2023-02-24T23:57:40.977Z,73.19
